Main page
METAR-TAF:

METAR-TAF

Airports :

Hutchinson County Airport

Borger, Texas, United States

latitude: 35-41-42N, longitude: 101-23-42W, elevation: 3054 ft

Current weather observation

The report was made 57 minutes ago, at 16:51 UTC
Wind 6 mph from variable directions
Temperature 82°F
Humidity 51%
Pressure 29.99 in. Hg
Visibility: 10 miles
Scattered clouds at a height of 11000 ft

METAR: KBGD 151651Z AUTO VRB05KT 10SM SCT110 28/17 A2999 RMK AO2 LTG DSNT NE SLP112 T02830167

Time: 12:48 (17:48 UTC)


TAF: missing

Weather observations and forecasts of more than 4000 airports (METAR and TAF reports).

The available stations are represented by yellow and red dots on the map.

Hover mouse over dot to see the name of the station.

Then click to see weather observations and forecasts.

To change the map : click on the green buttons with a black cross to zoom in, on the green button with a dash to zoom out, or on the green arrows for adjacent maps.


METAR-TAF: